»·PEaware :: DAL1430 KSFO-KLAX

DAL1430 :: KSFO-KLAX

FLIGHT INFORMATION

Flight Status: Arrived
Operator:
Delta Air Lines
More flights by this operator :: More flights under this callsign
Pilot: Jac C. (16067)
Aircraft: MCDONNELL-DOUGLAS MD-82
(MD82)
More flights by this aircraft type
Origin: KSFO San Francisco Intl
United States
Destination: KLAX Los Angeles Intl
United States
More flights between these airports :: More routes between these airports
Route: +SSTIK3 EBAYE BURGL IRNMN1
File this flight plan on PilotEdge
Remarks:
Altitude:
(Current/Filed)
29,000ft
Speed:
(Current/Filed)
400kts
Departed: 19-Jul-17 01:42 PM
Arrived: 19-Jul-17 02:38 PM
Distance/Time
Traveled:
293nm/0:56
Distance/Time
To Go:
Arrived

Flight Plot

Page will automatically refresh every two minutes.

Flight plan parsing failed; only flown route is shown


Map Options




Map Legend


Flown Route
Filed Route
Departure Airport
Arrival Airport
Navaid (VOR, NDB)
Fix

Horizontal Profiles

Position Reports

Time Latitude Longitude Heading Altitude Ground
Speed
19-Jul-17 13:13 37.611788 -122.385880 33 30ft 0kts
19-Jul-17 13:14 37.611788 -122.385880 33 30ft 0kts
19-Jul-17 13:15 37.611788 -122.385880 33 30ft 0kts
19-Jul-17 13:16 37.611788 -122.385880 33 30ft 0kts
19-Jul-17 13:17 37.611788 -122.385880 33 30ft 0kts
19-Jul-17 13:18 37.611788 -122.385880 33 30ft 0kts
19-Jul-17 13:19 37.611788 -122.385880 33 30ft 0kts
19-Jul-17 13:20 37.611788 -122.385880 33 30ft 0kts
19-Jul-17 13:21 37.611788 -122.385880 33 30ft 0kts
19-Jul-17 13:22 37.611788 -122.385880 33 30ft 0kts
19-Jul-17 13:23 37.611788 -122.385880 33 30ft 0kts
19-Jul-17 13:24 37.611788 -122.385880 33 30ft 0kts
19-Jul-17 13:25 37.611788 -122.385880 33 30ft 0kts
19-Jul-17 13:26 37.611788 -122.385880 33 30ft 0kts
19-Jul-17 13:27 37.611788 -122.385880 33 30ft 0kts
19-Jul-17 13:28 37.611788 -122.385880 33 30ft 0kts
19-Jul-17 13:29 37.611788 -122.385880 33 30ft 0kts
19-Jul-17 13:30 37.611251 -122.386543 102 30ft 2kts
19-Jul-17 13:31 37.611324 -122.386747 123 30ft 0kts
19-Jul-17 13:32 37.611324 -122.386747 123 30ft 0kts
19-Jul-17 13:33 37.611324 -122.386747 123 30ft 0kts
19-Jul-17 13:34 37.611324 -122.386747 123 30ft 0kts
19-Jul-17 13:35 37.611324 -122.386747 123 30ft 0kts
19-Jul-17 13:36 37.611324 -122.386747 123 30ft 0kts
19-Jul-17 13:37 37.611324 -122.386747 123 30ft 0kts
19-Jul-17 13:38 37.611324 -122.386747 123 30ft 0kts
19-Jul-17 13:39 37.611324 -122.386747 123 30ft 0kts
19-Jul-17 13:40 37.611324 -122.386747 123 30ft 0kts
19-Jul-17 13:41 37.611324 -122.386747 123 30ft 0kts
19-Jul-17 13:42 37.611324 -122.386747 123 30ft 0kts
19-Jul-17 13:43 37.608995 -122.383532 137 30ft 0kts
19-Jul-17 13:44 37.608925 -122.383441 130 30ft 4kts
19-Jul-17 13:45 37.627824 -122.369206 25 554ft 193kts
19-Jul-17 13:46 37.684329 -122.362032 335 4913ft 235kts
19-Jul-17 13:47 37.676713 -122.430553 198 9361ft 279kts
19-Jul-17 13:48 37.595825 -122.448839 192 12554ft 318kts
19-Jul-17 13:49 37.507691 -122.464869 168 15369ft 343kts
19-Jul-17 13:50 37.431069 -122.390016 137 18049ft 365kts
19-Jul-17 13:51 37.358657 -122.289923 135 19179ft 415kts
19-Jul-17 13:52 37.286625 -122.188778 136 22065ft 391kts
19-Jul-17 13:53 37.212991 -122.085809 137 24398ft 406kts
19-Jul-17 13:54 37.136631 -121.979343 137 27345ft 421kts
19-Jul-17 13:55 37.056462 -121.868171 136 29156ft 453kts
19-Jul-17 13:56 36.969584 -121.747865 135 29133ft 480kts
19-Jul-17 13:57 36.881334 -121.626048 135 29329ft 489kts
19-Jul-17 13:58 36.791652 -121.502759 135 29268ft 470kts
19-Jul-17 13:59 36.703415 -121.381977 135 29098ft 479kts
19-Jul-17 14:00 36.616790 -121.263782 135 29086ft 479kts
19-Jul-17 14:01 36.527267 -121.142138 135 29090ft 477kts
19-Jul-17 14:02 36.437881 -121.021118 135 29082ft 475kts
19-Jul-17 14:03 36.348899 -120.901031 134 29057ft 475kts
19-Jul-17 14:04 36.259746 -120.781172 134 29054ft 476kts
19-Jul-17 14:05 36.170203 -120.661237 134 29053ft 476kts
19-Jul-17 14:06 36.081610 -120.543020 135 29065ft 475kts
19-Jul-17 14:07 35.991989 -120.423825 134 29060ft 475kts
19-Jul-17 14:08 35.920868 -120.329551 135 29050ft 475kts
19-Jul-17 14:09 35.824883 -120.228371 150 29054ft 471kts
19-Jul-17 14:10 35.714183 -120.143997 150 29058ft 470kts
19-Jul-17 14:11 35.584502 -120.046226 150 29055ft 470kts
19-Jul-17 14:12 35.473691 -119.962803 150 29057ft 470kts
19-Jul-17 14:13 35.365254 -119.881438 150 29061ft 469kts
19-Jul-17 14:14 35.256555 -119.793802 145 29096ft 471kts
19-Jul-17 14:15 35.156003 -119.700039 144 28104ft 437kts
19-Jul-17 14:16 35.078872 -119.628185 145 27292ft 408kts
19-Jul-17 14:17 34.988051 -119.543831 144 26832ft 403kts
19-Jul-17 14:18 34.900640 -119.463268 145 24668ft 390kts
19-Jul-17 14:19 34.815815 -119.387300 145 23078ft 380kts
19-Jul-17 14:20 34.732567 -119.313267 146 23061ft 381kts
19-Jul-17 14:21 34.646832 -119.238384 146 23024ft 381kts
19-Jul-17 14:22 34.561208 -119.164494 145 22430ft 375kts
19-Jul-17 14:23 34.477791 -119.090628 145 20210ft 368kts
19-Jul-17 14:24 34.396218 -119.019320 146 18105ft 359kts
19-Jul-17 14:25 34.316809 -118.949500 144 16031ft 351kts
19-Jul-17 14:26 34.239952 -118.879627 143 14053ft 342kts
19-Jul-17 14:27 34.167792 -118.813336 142 13476ft 318kts
19-Jul-17 14:28 34.102573 -118.742897 137 12113ft 300kts
19-Jul-17 14:29 34.043659 -118.676487 125 10720ft 291kts
19-Jul-17 14:30 34.022703 -118.584202 96 9413ft 286kts
19-Jul-17 14:31 34.013745 -118.494768 95 8831ft 245kts
19-Jul-17 14:32 34.018115 -118.412736 77 8823ft 245kts
19-Jul-17 14:33 34.029322 -118.337334 83 6828ft 245kts
19-Jul-17 14:34 34.036077 -118.256830 89 4879ft 239kts
19-Jul-17 14:35 34.018506 -118.190105 164 3388ft 215kts
19-Jul-17 14:36 33.966832 -118.199509 231 2903ft 186kts
19-Jul-17 14:37 33.959967 -118.256767 258 2546ft 173kts
19-Jul-17 14:38 33.960003 -118.311932 269 1711ft 158kts
19-Jul-17 14:39 33.956369 -118.360782 262 753ft 140kts
19-Jul-17 14:40 33.951725 -118.405834 262 120ft 127kts
19-Jul-17 14:41 33.948709 -118.426547 228 112ft 15kts
19-Jul-17 14:42 33.947986 -118.427320 213 110ft 22kts
19-Jul-17 14:43 33.946967 -118.420972 83 117ft 25kts
19-Jul-17 14:44 33.947948 -118.412744 82 122ft 30kts
19-Jul-17 14:45 33.947783 -118.405614 115 119ft 13kts
19-Jul-17 14:46 33.947266 -118.404496 153 119ft 0kts

Navigation Log

Ident Type
Flight plan parsing failed, navigation log unavailable